sensor_id;sensor_type;location;lat;lon;timestamp;temperature;humidity
23560;DHT22;11958;50.836;4.438;2023-11-19T00:00:52;13.60;99.90
23560;DHT22;11958;50.836;4.438;2023-11-19T00:03:30;13.80;99.90
23560;DHT22;11958;50.836;4.438;2023-11-19T00:06:01;13.70;99.90
23560;DHT22;11958;50.836;4.438;2023-11-19T00:08:28;13.70;99.90
23560;DHT22;11958;50.836;4.438;2023-11-19T00:10:54;13.60;99.90
23560;DHT22;11958;50.836;4.438;2023-11-19T00:13:19;13.60;99.90
23560;DHT22;11958;50.836;4.438;2023-11-19T00:15:45;13.70;99.90
23560;DHT22;11958;50.836;4.438;2023-11-19T00:18:12;13.70;99.90
23560;DHT22;11958;50.836;4.438;2023-11-19T00:20:39;13.70;99.90
23560;DHT22;11958;50.836;4.438;2023-11-19T00:23:05;13.60;99.90
23560;DHT22;11958;50.836;4.438;2023-11-19T00:25:31;13.70;99.90
23560;DHT22;11958;50.836;4.438;2023-11-19T00:27:56;13.70;99.90
23560;DHT22;11958;50.836;4.438;2023-11-19T00:30:22;13.70;99.90
23560;DHT22;11958;50.836;4.438;2023-11-19T00:32:48;13.70;99.90
23560;DHT22;11958;50.836;4.438;2023-11-19T00:35:23;13.70;99.90
23560;DHT22;11958;50.836;4.438;2023-11-19T00:37:48;13.70;99.90
23560;DHT22;11958;50.836;4.438;2023-11-19T00:46:26;13.60;99.90
23560;DHT22;11958;50.836;4.438;2023-11-19T00:48:54;13.60;99.90
23560;DHT22;11958;50.836;4.438;2023-11-19T00:51:20;13.50;99.90
23560;DHT22;11958;50.836;4.438;2023-11-19T00:53:45;13.70;99.90
23560;DHT22;11958;50.836;4.438;2023-11-19T00:56:11;13.60;99.90
23560;DHT22;11958;50.836;4.438;2023-11-19T00:58:37;13.70;99.90
23560;DHT22;11958;50.836;4.438;2023-11-19T01:01:03;13.70;99.90
23560;DHT22;11958;50.836;4.438;2023-11-19T01:03:30;13.60;99.90
23560;DHT22;11958;50.836;4.438;2023-11-19T01:05:56;13.60;99.90
23560;DHT22;11958;50.836;4.438;2023-11-19T01:08:23;13.50;99.90
23560;DHT22;11958;50.836;4.438;2023-11-19T01:10:50;13.70;99.90
23560;DHT22;11958;50.836;4.438;2023-11-19T01:13:15;13.60;99.90
23560;DHT22;11958;50.836;4.438;2023-11-19T01:15:41;13.60;99.90
23560;DHT22;11958;50.836;4.438;2023-11-19T01:18:06;13.70;99.90
23560;DHT22;11958;50.836;4.438;2023-11-19T01:20:34;13.70;99.90
23560;DHT22;11958;50.836;4.438;2023-11-19T01:23:00;13.70;99.90
23560;DHT22;11958;50.836;4.438;2023-11-19T01:25:26;13.70;99.90
23560;DHT22;11958;50.836;4.438;2023-11-19T01:27:51;13.60;99.90
23560;DHT22;11958;50.836;4.438;2023-11-19T01:30:17;13.70;99.90
23560;DHT22;11958;50.836;4.438;2023-11-19T01:32:42;13.80;99.90
23560;DHT22;11958;50.836;4.438;2023-11-19T01:35:08;13.70;99.90
23560;DHT22;11958;50.836;4.438;2023-11-19T01:37:34;13.60;99.90
23560;DHT22;11958;50.836;4.438;2023-11-19T01:40:01;13.60;99.90
23560;DHT22;11958;50.836;4.438;2023-11-19T01:42:28;13.60;99.90
23560;DHT22;11958;50.836;4.438;2023-11-19T01:45:00;13.70;99.90
23560;DHT22;11958;50.836;4.438;2023-11-19T01:47:30;13.50;99.90
23560;DHT22;11958;50.836;4.438;2023-11-19T01:49:56;13.50;99.90
23560;DHT22;11958;50.836;4.438;2023-11-19T01:52:23;13.40;99.90
23560;DHT22;11958;50.836;4.438;2023-11-19T01:54:50;13.50;99.90
23560;DHT22;11958;50.836;4.438;2023-11-19T01:57:15;13.50;99.90
23560;DHT22;11958;50.836;4.438;2023-11-19T02:02:48;13.50;99.90
23560;DHT22;11958;50.836;4.438;2023-11-19T02:05:14;13.50;99.90
23560;DHT22;11958;50.836;4.438;2023-11-19T02:07:40;13.60;99.90
23560;DHT22;11958;50.836;4.438;2023-11-19T02:10:08;13.50;99.90
23560;DHT22;11958;50.836;4.438;2023-11-19T02:12:42;13.50;99.90
23560;DHT22;11958;50.836;4.438;2023-11-19T02:15:10;13.40;99.90
23560;DHT22;11958;50.836;4.438;2023-11-19T02:17:37;13.50;99.90
23560;DHT22;11958;50.836;4.438;2023-11-19T02:20:06;13.50;99.90
23560;DHT22;11958;50.836;4.438;2023-11-19T02:22:37;13.40;99.90
23560;DHT22;11958;50.836;4.438;2023-11-19T02:25:25;13.30;99.90
23560;DHT22;11958;50.836;4.438;2023-11-19T02:27:56;13.20;99.90
23560;DHT22;11958;50.836;4.438;2023-11-19T02:30:24;13.30;99.90
23560;DHT22;11958;50.836;4.438;2023-11-19T02:32:55;13.20;99.90
23560;DHT22;11958;50.836;4.438;2023-11-19T02:35:27;13.10;99.90
23560;DHT22;11958;50.836;4.438;2023-11-19T02:37:54;13.30;99.90
23560;DHT22;11958;50.836;4.438;2023-11-19T02:40:20;13.10;99.90
23560;DHT22;11958;50.836;4.438;2023-11-19T02:42:48;13.20;99.90
23560;DHT22;11958;50.836;4.438;2023-11-19T02:45:15;13.10;99.90
23560;DHT22;11958;50.836;4.438;2023-11-19T02:47:41;13.20;99.90
23560;DHT22;11958;50.836;4.438;2023-11-19T02:50:11;13.20;99.90
23560;DHT22;11958;50.836;4.438;2023-11-19T02:52:44;13.30;99.90
23560;DHT22;11958;50.836;4.438;2023-11-19T02:57:36;13.30;99.90
23560;DHT22;11958;50.836;4.438;2023-11-19T03:00:02;13.30;99.80
23560;DHT22;11958;50.836;4.438;2023-11-19T03:02:40;13.20;99.90
23560;DHT22;11958;50.836;4.438;2023-11-19T03:05:12;13.20;99.90
23560;DHT22;11958;50.836;4.438;2023-11-19T03:07:41;13.20;99.80
23560;DHT22;11958;50.836;4.438;2023-11-19T03:10:14;13.10;99.60
23560;DHT22;11958;50.836;4.438;2023-11-19T03:19:22;13.10;98.80
23560;DHT22;11958;50.836;4.438;2023-11-19T03:21:54;13.20;99.40
23560;DHT22;11958;50.836;4.438;2023-11-19T03:24:20;13.10;99.20
23560;DHT22;11958;50.836;4.438;2023-11-19T03:26:49;13.00;99.30
23560;DHT22;11958;50.836;4.438;2023-11-19T03:29:17;13.10;99.20
23560;DHT22;11958;50.836;4.438;2023-11-19T03:31:43;13.00;99.00
23560;DHT22;11958;50.836;4.438;2023-11-19T03:34:10;13.00;98.50
23560;DHT22;11958;50.836;4.438;2023-11-19T03:36:36;13.10;98.50
23560;DHT22;11958;50.836;4.438;2023-11-19T03:39:02;13.00;98.60
23560;DHT22;11958;50.836;4.438;2023-11-19T03:41:28;12.80;99.00
23560;DHT22;11958;50.836;4.438;2023-11-19T03:43:54;12.80;99.10
23560;DHT22;11958;50.836;4.438;2023-11-19T03:46:21;12.80;98.90
23560;DHT22;11958;50.836;4.438;2023-11-19T03:48:49;12.80;99.00
23560;DHT22;11958;50.836;4.438;2023-11-19T03:51:14;12.80;99.40
23560;DHT22;11958;50.836;4.438;2023-11-19T03:53:44;12.80;98.80
23560;DHT22;11958;50.836;4.438;2023-11-19T03:56:11;12.70;98.70
23560;DHT22;11958;50.836;4.438;2023-11-19T03:58:37;12.60;99.90
23560;DHT22;11958;50.836;4.438;2023-11-19T04:01:05;12.60;99.90
23560;DHT22;11958;50.836;4.438;2023-11-19T04:03:31;12.50;99.80
23560;DHT22;11958;50.836;4.438;2023-11-19T04:05:56;12.60;99.90
23560;DHT22;11958;50.836;4.438;2023-11-19T04:08:22;12.50;99.70
23560;DHT22;11958;50.836;4.438;2023-11-19T04:10:48;12.70;98.30
23560;DHT22;11958;50.836;4.438;2023-11-19T04:13:14;12.70;98.40
23560;DHT22;11958;50.836;4.438;2023-11-19T04:15:41;12.80;97.80
23560;DHT22;11958;50.836;4.438;2023-11-19T04:18:06;12.70;99.50
23560;DHT22;11958;50.836;4.438;2023-11-19T04:20:32;12.60;99.30
23560;DHT22;11958;50.836;4.438;2023-11-19T04:22:58;12.60;99.40
23560;DHT22;11958;50.836;4.438;2023-11-19T04:25:26;12.60;99.60
23560;DHT22;11958;50.836;4.438;2023-11-19T04:27:52;12.70;99.10
23560;DHT22;11958;50.836;4.438;2023-11-19T04:30:18;12.60;99.30
23560;DHT22;11958;50.836;4.438;2023-11-19T04:32:44;12.60;99.20
23560;DHT22;11958;50.836;4.438;2023-11-19T04:37:48;12.60;98.50
23560;DHT22;11958;50.836;4.438;2023-11-19T04:40:14;12.60;98.00
23560;DHT22;11958;50.836;4.438;2023-11-19T04:42:40;12.60;97.80
23560;DHT22;11958;50.836;4.438;2023-11-19T04:45:06;12.50;97.30
23560;DHT22;11958;50.836;4.438;2023-11-19T04:47:38;12.50;97.20
23560;DHT22;11958;50.836;4.438;2023-11-19T04:50:04;12.60;96.70
23560;DHT22;11958;50.836;4.438;2023-11-19T04:52:30;12.70;95.70
23560;DHT22;11958;50.836;4.438;2023-11-19T04:54:56;12.70;96.80
23560;DHT22;11958;50.836;4.438;2023-11-19T04:57:21;12.70;95.00
23560;DHT22;11958;50.836;4.438;2023-11-19T04:59:47;12.70;95.50
23560;DHT22;11958;50.836;4.438;2023-11-19T05:02:13;12.80;95.00
23560;DHT22;11958;50.836;4.438;2023-11-19T05:04:43;12.80;94.90
23560;DHT22;11958;50.836;4.438;2023-11-19T05:07:12;12.80;95.10
23560;DHT22;11958;50.836;4.438;2023-11-19T05:09:37;12.80;95.20
23560;DHT22;11958;50.836;4.438;2023-11-19T05:12:03;12.70;95.40
23560;DHT22;11958;50.836;4.438;2023-11-19T05:14:29;12.80;95.40
23560;DHT22;11958;50.836;4.438;2023-11-19T05:16:55;12.70;95.10
23560;DHT22;11958;50.836;4.438;2023-11-19T05:19:20;12.60;96.70
23560;DHT22;11958;50.836;4.438;2023-11-19T05:21:46;12.50;96.40
23560;DHT22;11958;50.836;4.438;2023-11-19T05:24:12;12.50;96.50
23560;DHT22;11958;50.836;4.438;2023-11-19T05:26:38;12.50;96.30
23560;DHT22;11958;50.836;4.438;2023-11-19T05:29:04;12.40;95.50
23560;DHT22;11958;50.836;4.438;2023-11-19T05:31:30;12.30;95.80
23560;DHT22;11958;50.836;4.438;2023-11-19T05:33:55;12.40;96.30
23560;DHT22;11958;50.836;4.438;2023-11-19T05:36:21;12.40;95.90
23560;DHT22;11958;50.836;4.438;2023-11-19T05:38:47;12.30;96.10
23560;DHT22;11958;50.836;4.438;2023-11-19T05:41:12;12.40;95.30
23560;DHT22;11958;50.836;4.438;2023-11-19T05:43:38;12.70;94.60
23560;DHT22;11958;50.836;4.438;2023-11-19T05:46:06;12.60;94.20
23560;DHT22;11958;50.836;4.438;2023-11-19T05:48:32;12.50;94.60
23560;DHT22;11958;50.836;4.438;2023-11-19T05:50:58;12.50;95.00
23560;DHT22;11958;50.836;4.438;2023-11-19T05:53:24;12.40;95.10
23560;DHT22;11958;50.836;4.438;2023-11-19T05:55:50;12.40;95.00
23560;DHT22;11958;50.836;4.438;2023-11-19T05:58:26;12.40;95.20
23560;DHT22;11958;50.836;4.438;2023-11-19T06:00:55;12.40;94.70
23560;DHT22;11958;50.836;4.438;2023-11-19T06:03:21;12.30;94.40
23560;DHT22;11958;50.836;4.438;2023-11-19T06:05:52;12.40;94.80
23560;DHT22;11958;50.836;4.438;2023-11-19T06:08:20;12.20;95.60
23560;DHT22;11958;50.836;4.438;2023-11-19T06:10:46;12.10;95.70
23560;DHT22;11958;50.836;4.438;2023-11-19T06:13:15;12.10;95.90
23560;DHT22;11958;50.836;4.438;2023-11-19T06:15:44;12.10;95.70
23560;DHT22;11958;50.836;4.438;2023-11-19T06:18:10;12.00;95.90
23560;DHT22;11958;50.836;4.438;2023-11-19T06:20:37;12.30;96.00
23560;DHT22;11958;50.836;4.438;2023-11-19T06:23:03;12.20;95.70
23560;DHT22;11958;50.836;4.438;2023-11-19T06:25:29;12.10;96.10
23560;DHT22;11958;50.836;4.438;2023-11-19T06:27:54;12.00;96.10
23560;DHT22;11958;50.836;4.438;2023-11-19T06:30:20;12.00;96.20
23560;DHT22;11958;50.836;4.438;2023-11-19T06:32:46;11.90;96.90
23560;DHT22;11958;50.836;4.438;2023-11-19T06:35:12;11.90;96.60
23560;DHT22;11958;50.836;4.438;2023-11-19T06:37:40;11.90;96.80
23560;DHT22;11958;50.836;4.438;2023-11-19T06:40:06;11.90;97.00
23560;DHT22;11958;50.836;4.438;2023-11-19T06:42:32;11.90;97.00
23560;DHT22;11958;50.836;4.438;2023-11-19T06:44:58;11.90;96.60
23560;DHT22;11958;50.836;4.438;2023-11-19T06:47:27;11.90;97.10
23560;DHT22;11958;50.836;4.438;2023-11-19T06:49:54;11.80;97.20
23560;DHT22;11958;50.836;4.438;2023-11-19T06:52:20;11.70;96.90
23560;DHT22;11958;50.836;4.438;2023-11-19T06:54:46;11.80;96.80
23560;DHT22;11958;50.836;4.438;2023-11-19T06:57:12;11.90;96.10
23560;DHT22;11958;50.836;4.438;2023-11-19T06:59:38;11.80;96.40
23560;DHT22;11958;50.836;4.438;2023-11-19T07:02:04;11.80;96.70
23560;DHT22;11958;50.836;4.438;2023-11-19T07:04:32;11.60;96.80
23560;DHT22;11958;50.836;4.438;2023-11-19T07:07:01;11.60;97.20
23560;DHT22;11958;50.836;4.438;2023-11-19T07:09:27;11.70;97.40
23560;DHT22;11958;50.836;4.438;2023-11-19T07:12:04;11.60;96.90
23560;DHT22;11958;50.836;4.438;2023-11-19T07:14:30;11.80;96.70
23560;DHT22;11958;50.836;4.438;2023-11-19T07:16:56;11.80;96.20
23560;DHT22;11958;50.836;4.438;2023-11-19T07:19:22;11.90;96.60
23560;DHT22;11958;50.836;4.438;2023-11-19T07:21:47;11.90;96.30
23560;DHT22;11958;50.836;4.438;2023-11-19T07:24:13;11.90;95.90
23560;DHT22;11958;50.836;4.438;2023-11-19T07:26:46;11.90;95.90
23560;DHT22;11958;50.836;4.438;2023-11-19T07:29:15;12.10;95.90
23560;DHT22;11958;50.836;4.438;2023-11-19T07:31:42;11.80;96.10
23560;DHT22;11958;50.836;4.438;2023-11-19T07:34:10;11.70;95.30
23560;DHT22;11958;50.836;4.438;2023-11-19T07:36:37;12.00;95.30
23560;DHT22;11958;50.836;4.438;2023-11-19T07:39:04;11.80;95.30
23560;DHT22;11958;50.836;4.438;2023-11-19T07:41:31;11.80;95.40
23560;DHT22;11958;50.836;4.438;2023-11-19T07:43:56;11.90;94.60
23560;DHT22;11958;50.836;4.438;2023-11-19T07:46:22;11.80;95.10
23560;DHT22;11958;50.836;4.438;2023-11-19T07:48:47;12.10;95.10
23560;DHT22;11958;50.836;4.438;2023-11-19T07:51:14;12.00;94.10
23560;DHT22;11958;50.836;4.438;2023-11-19T07:53:40;12.00;94.10
23560;DHT22;11958;50.836;4.438;2023-11-19T07:56:07;11.70;94.30
23560;DHT22;11958;50.836;4.438;2023-11-19T07:58:33;11.90;94.00
23560;DHT22;11958;50.836;4.438;2023-11-19T08:03:24;12.10;93.50
23560;DHT22;11958;50.836;4.438;2023-11-19T08:08:49;12.00;92.90
23560;DHT22;11958;50.836;4.438;2023-11-19T08:11:41;12.20;92.60
23560;DHT22;11958;50.836;4.438;2023-11-19T08:14:28;12.10;92.80
23560;DHT22;11958;50.836;4.438;2023-11-19T08:20:33;12.20;92.60
23560;DHT22;11958;50.836;4.438;2023-11-19T08:23:05;12.20;92.40
23560;DHT22;11958;50.836;4.438;2023-11-19T08:25:42;12.20;92.10
23560;DHT22;11958;50.836;4.438;2023-11-19T08:31:11;12.20;91.90
23560;DHT22;11958;50.836;4.438;2023-11-19T08:33:36;12.20;92.40
23560;DHT22;11958;50.836;4.438;2023-11-19T08:36:24;12.40;92.00
23560;DHT22;11958;50.836;4.438;2023-11-19T08:38:59;12.50;90.50
23560;DHT22;11958;50.836;4.438;2023-11-19T08:41:49;12.60;91.40
23560;DHT22;11958;50.836;4.438;2023-11-19T08:44:16;12.60;90.50
23560;DHT22;11958;50.836;4.438;2023-11-19T09:00:56;11.90;95.30
23560;DHT22;11958;50.836;4.438;2023-11-19T09:03:27;12.00;95.70
23560;DHT22;11958;50.836;4.438;2023-11-19T09:09:12;12.40;94.10
23560;DHT22;11958;50.836;4.438;2023-11-19T10:07:38;12.80;89.50
23560;DHT22;11958;50.836;4.438;2023-11-19T10:10:04;12.90;88.70
23560;DHT22;11958;50.836;4.438;2023-11-19T10:12:30;13.00;89.20
23560;DHT22;11958;50.836;4.438;2023-11-19T10:14:57;12.80;89.00
23560;DHT22;11958;50.836;4.438;2023-11-19T10:17:33;13.00;89.70
23560;DHT22;11958;50.836;4.438;2023-11-19T10:22:30;13.00;88.40
23560;DHT22;11958;50.836;4.438;2023-11-19T10:25:27;13.20;88.00
23560;DHT22;11958;50.836;4.438;2023-11-19T10:27:54;13.20;88.60
23560;DHT22;11958;50.836;4.438;2023-11-19T10:30:23;13.30;88.20
23560;DHT22;11958;50.836;4.438;2023-11-19T10:47:45;13.70;85.70
23560;DHT22;11958;50.836;4.438;2023-11-19T10:50:21;13.70;85.80
23560;DHT22;11958;50.836;4.438;2023-11-19T10:52:50;13.60;85.60
23560;DHT22;11958;50.836;4.438;2023-11-19T10:55:20;13.60;85.60
23560;DHT22;11958;50.836;4.438;2023-11-19T10:57:51;13.60;85.90
23560;DHT22;11958;50.836;4.438;2023-11-19T11:00:21;13.70;84.90
23560;DHT22;11958;50.836;4.438;2023-11-19T11:02:48;13.70;85.50
23560;DHT22;11958;50.836;4.438;2023-11-19T11:05:16;13.60;84.90
23560;DHT22;11958;50.836;4.438;2023-11-19T11:07:44;13.60;84.50
23560;DHT22;11958;50.836;4.438;2023-11-19T11:13:29;13.50;85.20
23560;DHT22;11958;50.836;4.438;2023-11-19T11:33:26;13.30;88.00
23560;DHT22;11958;50.836;4.438;2023-11-19T11:38:37;13.30;87.90
23560;DHT22;11958;50.836;4.438;2023-11-19T11:41:42;13.40;87.90
23560;DHT22;11958;50.836;4.438;2023-11-19T11:44:17;13.20;87.80
23560;DHT22;11958;50.836;4.438;2023-11-19T11:46:55;13.30;88.10
23560;DHT22;11958;50.836;4.438;2023-11-19T11:49:27;13.40;87.20
23560;DHT22;11958;50.836;4.438;2023-11-19T11:52:07;13.50;87.10
23560;DHT22;11958;50.836;4.438;2023-11-19T11:54:41;13.70;84.90
23560;DHT22;11958;50.836;4.438;2023-11-19T11:57:13;13.90;84.90
23560;DHT22;11958;50.836;4.438;2023-11-19T12:02:08;14.30;82.40
23560;DHT22;11958;50.836;4.438;2023-11-19T12:04:35;14.50;81.70
23560;DHT22;11958;50.836;4.438;2023-11-19T12:09:41;14.20;81.20
23560;DHT22;11958;50.836;4.438;2023-11-19T12:12:26;14.20;81.70
23560;DHT22;11958;50.836;4.438;2023-11-19T12:15:04;14.00;82.10
23560;DHT22;11958;50.836;4.438;2023-11-19T12:20:12;14.00;82.20
23560;DHT22;11958;50.836;4.438;2023-11-19T12:22:39;13.80;83.10
23560;DHT22;11958;50.836;4.438;2023-11-19T12:25:06;13.70;83.40
23560;DHT22;11958;50.836;4.438;2023-11-19T12:27:33;13.60;83.50
23560;DHT22;11958;50.836;4.438;2023-11-19T12:30:05;13.60;84.70
23560;DHT22;11958;50.836;4.438;2023-11-19T12:32:42;13.20;86.60
23560;DHT22;11958;50.836;4.438;2023-11-19T12:35:10;13.10;86.90
23560;DHT22;11958;50.836;4.438;2023-11-19T12:37:46;13.10;86.40
23560;DHT22;11958;50.836;4.438;2023-11-19T12:40:22;13.20;86.30
23560;DHT22;11958;50.836;4.438;2023-11-19T12:42:52;13.20;86.90
23560;DHT22;11958;50.836;4.438;2023-11-19T12:45:18;13.20;86.60
23560;DHT22;11958;50.836;4.438;2023-11-19T12:47:46;13.20;86.80
23560;DHT22;11958;50.836;4.438;2023-11-19T12:50:16;13.40;86.00
23560;DHT22;11958;50.836;4.438;2023-11-19T12:52:56;13.30;86.20
23560;DHT22;11958;50.836;4.438;2023-11-19T12:55:27;13.70;84.90
23560;DHT22;11958;50.836;4.438;2023-11-19T12:57:53;13.70;84.70
23560;DHT22;11958;50.836;4.438;2023-11-19T13:00:24;13.60;84.60
23560;DHT22;11958;50.836;4.438;2023-11-19T13:02:57;13.60;84.20
23560;DHT22;11958;50.836;4.438;2023-11-19T13:08:35;13.60;83.20
23560;DHT22;11958;50.836;4.438;2023-11-19T13:14:41;13.60;84.40
23560;DHT22;11958;50.836;4.438;2023-11-19T13:17:08;13.60;84.40
23560;DHT22;11958;50.836;4.438;2023-11-19T13:19:34;13.60;84.50
23560;DHT22;11958;50.836;4.438;2023-11-19T13:22:00;13.50;83.90
23560;DHT22;11958;50.836;4.438;2023-11-19T13:24:31;13.50;83.80
23560;DHT22;11958;50.836;4.438;2023-11-19T13:26:59;13.50;83.60
23560;DHT22;11958;50.836;4.438;2023-11-19T13:29:25;13.50;84.20
23560;DHT22;11958;50.836;4.438;2023-11-19T13:31:51;13.70;83.60
23560;DHT22;11958;50.836;4.438;2023-11-19T13:34:16;13.90;83.60
23560;DHT22;11958;50.836;4.438;2023-11-19T13:39:12;13.50;85.90
23560;DHT22;11958;50.836;4.438;2023-11-19T13:41:38;13.40;86.00
23560;DHT22;11958;50.836;4.438;2023-11-19T13:44:04;13.10;86.90
23560;DHT22;11958;50.836;4.438;2023-11-19T13:46:30;13.20;86.90
23560;DHT22;11958;50.836;4.438;2023-11-19T13:48:55;13.10;87.40
23560;DHT22;11958;50.836;4.438;2023-11-19T13:51:21;13.10;87.50
23560;DHT22;11958;50.836;4.438;2023-11-19T13:53:47;13.20;87.10
23560;DHT22;11958;50.836;4.438;2023-11-19T13:56:17;13.20;87.30
23560;DHT22;11958;50.836;4.438;2023-11-19T13:58:42;13.10;86.90
23560;DHT22;11958;50.836;4.438;2023-11-19T14:01:08;13.20;87.00
23560;DHT22;11958;50.836;4.438;2023-11-19T14:03:34;13.30;86.60
23560;DHT22;11958;50.836;4.438;2023-11-19T14:05:59;13.10;86.40
23560;DHT22;11958;50.836;4.438;2023-11-19T14:08:26;13.10;86.70
23560;DHT22;11958;50.836;4.438;2023-11-19T14:10:52;13.10;86.90
23560;DHT22;11958;50.836;4.438;2023-11-19T14:13:20;13.10;87.60
23560;DHT22;11958;50.836;4.438;2023-11-19T14:15:46;13.10;88.00
23560;DHT22;11958;50.836;4.438;2023-11-19T14:18:12;13.20;87.80
23560;DHT22;11958;50.836;4.438;2023-11-19T14:20:37;13.20;86.40
23560;DHT22;11958;50.836;4.438;2023-11-19T14:23:04;13.10;86.90
23560;DHT22;11958;50.836;4.438;2023-11-19T14:25:30;13.20;86.20
23560;DHT22;11958;50.836;4.438;2023-11-19T14:27:55;13.10;86.10
23560;DHT22;11958;50.836;4.438;2023-11-19T14:30:21;13.10;86.40
23560;DHT22;11958;50.836;4.438;2023-11-19T14:32:47;13.20;86.80
23560;DHT22;11958;50.836;4.438;2023-11-19T14:35:13;13.10;88.30
23560;DHT22;11958;50.836;4.438;2023-11-19T14:37:39;12.70;90.90
23560;DHT22;11958;50.836;4.438;2023-11-19T14:40:06;12.50;94.00
23560;DHT22;11958;50.836;4.438;2023-11-19T14:42:35;12.40;94.20
23560;DHT22;11958;50.836;4.438;2023-11-19T14:45:00;12.40;94.20
23560;DHT22;11958;50.836;4.438;2023-11-19T14:47:26;12.30;94.60
23560;DHT22;11958;50.836;4.438;2023-11-19T14:49:52;12.50;93.90
23560;DHT22;11958;50.836;4.438;2023-11-19T14:52:17;12.50;93.90
23560;DHT22;11958;50.836;4.438;2023-11-19T14:54:43;12.40;94.00
23560;DHT22;11958;50.836;4.438;2023-11-19T14:57:09;12.50;93.60
23560;DHT22;11958;50.836;4.438;2023-11-19T14:59:36;12.50;92.50
23560;DHT22;11958;50.836;4.438;2023-11-19T15:02:02;12.60;92.10
23560;DHT22;11958;50.836;4.438;2023-11-19T15:04:28;12.60;92.50
23560;DHT22;11958;50.836;4.438;2023-11-19T15:06:56;12.50;92.80
23560;DHT22;11958;50.836;4.438;2023-11-19T15:09:22;12.60;92.40
23560;DHT22;11958;50.836;4.438;2023-11-19T15:11:48;12.60;92.00
23560;DHT22;11958;50.836;4.438;2023-11-19T15:14:14;12.50;91.80
23560;DHT22;11958;50.836;4.438;2023-11-19T15:16:45;12.60;91.40
23560;DHT22;11958;50.836;4.438;2023-11-19T15:19:39;12.60;91.10
23560;DHT22;11958;50.836;4.438;2023-11-19T15:22:07;12.70;89.80
23560;DHT22;11958;50.836;4.438;2023-11-19T15:24:36;12.60;89.80
23560;DHT22;11958;50.836;4.438;2023-11-19T15:27:05;12.60;89.60
23560;DHT22;11958;50.836;4.438;2023-11-19T15:29:30;12.70;89.90
23560;DHT22;11958;50.836;4.438;2023-11-19T15:31:59;12.70;88.40
23560;DHT22;11958;50.836;4.438;2023-11-19T15:34:25;12.80;87.70
23560;DHT22;11958;50.836;4.438;2023-11-19T15:36:51;12.80;86.60
23560;DHT22;11958;50.836;4.438;2023-11-19T15:39:16;13.00;87.10
23560;DHT22;11958;50.836;4.438;2023-11-19T15:41:42;12.90;85.70
23560;DHT22;11958;50.836;4.438;2023-11-19T15:44:08;12.90;86.20
23560;DHT22;11958;50.836;4.438;2023-11-19T15:46:33;12.90;85.50
23560;DHT22;11958;50.836;4.438;2023-11-19T15:48:59;13.00;84.80
23560;DHT22;11958;50.836;4.438;2023-11-19T15:51:25;13.00;84.80
23560;DHT22;11958;50.836;4.438;2023-11-19T15:53:53;13.00;84.60
23560;DHT22;11958;50.836;4.438;2023-11-19T15:57:07;13.00;84.00
23560;DHT22;11958;50.836;4.438;2023-11-19T15:59:43;13.00;84.40
23560;DHT22;11958;50.836;4.438;2023-11-19T16:02:09;13.00;84.70
23560;DHT22;11958;50.836;4.438;2023-11-19T16:04:34;12.90;85.20
23560;DHT22;11958;50.836;4.438;2023-11-19T16:07:00;12.80;86.10
23560;DHT22;11958;50.836;4.438;2023-11-19T16:09:26;12.70;86.00
23560;DHT22;11958;50.836;4.438;2023-11-19T16:11:53;12.60;87.50
23560;DHT22;11958;50.836;4.438;2023-11-19T16:14:20;12.70;87.60
23560;DHT22;11958;50.836;4.438;2023-11-19T16:16:45;12.70;88.10
23560;DHT22;11958;50.836;4.438;2023-11-19T16:19:11;12.50;88.50
23560;DHT22;11958;50.836;4.438;2023-11-19T16:21:37;12.60;89.20
23560;DHT22;11958;50.836;4.438;2023-11-19T16:24:03;12.50;89.60
23560;DHT22;11958;50.836;4.438;2023-11-19T16:26:30;12.40;90.40
23560;DHT22;11958;50.836;4.438;2023-11-19T16:28:58;12.40;90.80
23560;DHT22;11958;50.836;4.438;2023-11-19T16:31:27;12.30;91.10
23560;DHT22;11958;50.836;4.438;2023-11-19T16:33:53;12.40;91.30
23560;DHT22;11958;50.836;4.438;2023-11-19T16:36:18;12.20;92.20
23560;DHT22;11958;50.836;4.438;2023-11-19T16:38:44;12.20;92.90
23560;DHT22;11958;50.836;4.438;2023-11-19T16:41:19;12.00;93.80
23560;DHT22;11958;50.836;4.438;2023-11-19T16:43:46;12.10;94.70
23560;DHT22;11958;50.836;4.438;2023-11-19T16:46:14;11.90;95.80
23560;DHT22;11958;50.836;4.438;2023-11-19T16:48:40;11.80;96.30
23560;DHT22;11958;50.836;4.438;2023-11-19T16:51:10;11.70;97.20
23560;DHT22;11958;50.836;4.438;2023-11-19T16:53:48;11.60;97.50
23560;DHT22;11958;50.836;4.438;2023-11-19T16:56:17;11.60;97.60
23560;DHT22;11958;50.836;4.438;2023-11-19T16:58:45;11.70;97.60
23560;DHT22;11958;50.836;4.438;2023-11-19T17:01:12;11.70;97.80
23560;DHT22;11958;50.836;4.438;2023-11-19T17:03:39;11.60;98.00
23560;DHT22;11958;50.836;4.438;2023-11-19T17:06:07;11.70;98.10
23560;DHT22;11958;50.836;4.438;2023-11-19T17:08:33;11.90;97.00
23560;DHT22;11958;50.836;4.438;2023-11-19T17:11:03;11.70;97.20
23560;DHT22;11958;50.836;4.438;2023-11-19T17:13:31;11.70;97.60
23560;DHT22;11958;50.836;4.438;2023-11-19T17:15:56;11.70;97.60
23560;DHT22;11958;50.836;4.438;2023-11-19T17:18:23;11.80;97.50
23560;DHT22;11958;50.836;4.438;2023-11-19T17:20:49;11.90;97.30
23560;DHT22;11958;50.836;4.438;2023-11-19T17:23:15;11.90;97.00
23560;DHT22;11958;50.836;4.438;2023-11-19T17:25:41;11.90;96.90
23560;DHT22;11958;50.836;4.438;2023-11-19T17:28:08;11.80;96.90
23560;DHT22;11958;50.836;4.438;2023-11-19T17:30:34;11.90;96.30
23560;DHT22;11958;50.836;4.438;2023-11-19T17:33:01;12.00;95.90
23560;DHT22;11958;50.836;4.438;2023-11-19T17:35:27;12.00;95.90
23560;DHT22;11958;50.836;4.438;2023-11-19T17:37:52;11.90;95.20
23560;DHT22;11958;50.836;4.438;2023-11-19T17:40:18;12.00;95.40
23560;DHT22;11958;50.836;4.438;2023-11-19T17:42:44;11.90;95.40
23560;DHT22;11958;50.836;4.438;2023-11-19T17:45:10;11.80;96.30
23560;DHT22;11958;50.836;4.438;2023-11-19T17:47:43;11.80;96.30
23560;DHT22;11958;50.836;4.438;2023-11-19T17:50:09;11.80;96.50
23560;DHT22;11958;50.836;4.438;2023-11-19T17:52:36;11.80;96.90
23560;DHT22;11958;50.836;4.438;2023-11-19T17:55:02;11.70;96.90
23560;DHT22;11958;50.836;4.438;2023-11-19T17:57:33;11.60;97.10
23560;DHT22;11958;50.836;4.438;2023-11-19T18:00:02;11.60;98.00
23560;DHT22;11958;50.836;4.438;2023-11-19T18:02:31;11.50;98.20
23560;DHT22;11958;50.836;4.438;2023-11-19T18:04:57;11.60;98.50
23560;DHT22;11958;50.836;4.438;2023-11-19T18:07:22;11.40;98.30
23560;DHT22;11958;50.836;4.438;2023-11-19T18:09:48;11.40;98.30
23560;DHT22;11958;50.836;4.438;2023-11-19T18:12:14;11.60;97.80
23560;DHT22;11958;50.836;4.438;2023-11-19T18:14:49;11.50;97.80
23560;DHT22;11958;50.836;4.438;2023-11-19T18:17:22;11.80;96.90
23560;DHT22;11958;50.836;4.438;2023-11-19T18:19:48;11.90;96.10